Time;durP1;ratioP1;P1;durP2;ratioP2;P2;SDS_P1;SDS_P2;PMS_P1;PMS_P2;Temp;Humidity;BMP_temperature;BMP_pressure;BME280_temperature;BME280_humidity;BME280_pressure;Samples;Min_cycle;Max_cycle;Signal;HPM_P1;HPM_P2
2021/12/07 00:01:03;;;;;;;32.50;16.70;;;;;;;-0.63;84.89;98259.08;213777;1322;25346;-71
2021/12/07 00:06:08;;;;;;;26.80;14.70;;;;;;;-0.64;84.67;98256.89;213695;1323;22655;-71
2021/12/07 00:11:11;;;;;;;27.30;15.40;;;;;;;-0.63;84.89;98260.35;213783;1322;24026;-70
2021/12/07 00:16:14;;;;;;;25.70;14.90;;;;;;;-0.65;84.77;98266.34;213137;1318;141320;-71
2021/12/07 00:21:19;;;;;;;33.10;17.90;;;;;;;-0.71;84.74;98270.36;212602;1317;22690;-70
2021/12/07 00:26:22;;;;;;;29.90;17.20;;;;;;;-0.76;84.82;98264.30;212845;1320;22586;-70
2021/12/07 00:31:37;;;;;;;29.60;17.40;;;;;;;-0.79;84.45;98261.43;212531;1322;22561;-70
2021/12/07 00:36:47;;;;;;;27.50;14.60;;;;;;;-0.82;84.52;98274.27;212496;1323;22577;-71
2021/12/07 00:41:51;;;;;;;26.60;14.80;;;;;;;-0.84;84.68;98276.80;212895;1324;22935;-72
2021/12/07 00:46:53;;;;;;;30.50;16.00;;;;;;;-0.87;84.86;98278.63;212273;1323;25646;-70
2021/12/07 00:51:57;;;;;;;29.30;17.10;;;;;;;-0.88;84.80;98272.60;212611;1323;22597;-71
2021/12/07 00:57:02;;;;;;;26.10;15.00;;;;;;;-0.87;84.60;98275.14;213450;1323;22730;-70
2021/12/07 01:02:05;;;;;;;27.00;15.30;;;;;;;-0.91;84.43;98273.22;213448;1324;22809;-71
2021/12/07 01:07:25;;;;;;;30.70;16.70;;;;;;;-0.93;84.64;98270.95;213255;1324;25218;-72
2021/12/07 01:28:50;;;;;;;31.10;16.20;;;;;;;-0.96;84.44;98249.21;213518;1323;23040;-71
2021/12/07 01:40:08;;;;;;;30.70;15.80;;;;;;;-1.01;84.42;98222.67;213601;1324;22735;-71
2021/12/07 01:45:53;;;;;;;28.10;15.30;;;;;;;-1.02;84.62;98225.65;212637;1324;22567;-70
2021/12/07 02:01:36;;;;;;;29.20;17.30;;;;;;;-1.14;84.49;98224.59;213495;1324;23860;-70
2021/12/07 02:06:47;;;;;;;28.40;15.70;;;;;;;-1.16;84.37;98217.70;213549;1324;25514;-71
2021/12/07 02:12:06;;;;;;;29.00;15.30;;;;;;;-1.18;84.49;98214.23;213851;1323;25439;-70
2021/12/07 02:17:25;;;;;;;31.80;16.00;;;;;;;-1.17;84.58;98216.79;212514;1324;22577;-72
2021/12/07 02:22:51;;;;;;;25.40;14.30;;;;;;;-1.15;84.67;98218.04;212958;1324;22614;-70
2021/12/07 02:27:54;;;;;;;24.30;14.10;;;;;;;-1.13;84.39;98213.72;212709;1322;22565;-72
2021/12/07 02:32:57;;;;;;;26.10;14.10;;;;;;;-1.08;84.62;98212.33;213530;1321;22577;-71
2021/12/07 02:38:00;;;;;;;29.50;16.20;;;;;;;-1.06;84.65;98216.98;213687;1323;22725;-71
2021/12/07 02:43:08;;;;;;;29.90;15.50;;;;;;;-1.07;84.66;98215.95;213744;1323;22562;-71
2021/12/07 02:48:55;;;;;;;;;;;;;;;;;;;;;
2021/12/07 02:54:25;;;;;;;26.50;15.10;;;;;;;-0.98;84.85;98215.76;213674;1323;22613;-71
2021/12/07 03:00:15;;;;;;;26.00;12.30;;;;;;;-0.97;84.43;98207.70;212791;1322;22585;-71
2021/12/07 03:05:40;;;;;;;30.30;15.90;;;;;;;-1.00;84.61;98201.63;213570;1323;25413;-71
2021/12/07 03:26:56;;;;;;;36.10;17.10;;;;;;;-1.06;84.54;98216.16;213785;1323;24257;-71
2021/12/07 03:32:09;;;;;;;30.40;15.70;;;;;;;-1.06;84.44;98224.34;213807;1316;24327;-70
2021/12/07 03:37:23;;;;;;;25.50;14.60;;;;;;;-1.03;84.65;98235.68;213937;1316;22568;-70
2021/12/07 03:42:32;;;;;;;30.40;16.70;;;;;;;-0.99;84.66;98232.52;213689;1323;24294;-70
2021/12/07 03:48:10;;;;;;;41.80;19.00;;;;;;;-0.97;84.67;98232.73;213623;1322;24418;-71
2021/12/07 03:53:40;;;;;;;39.50;18.20;;;;;;;-0.95;84.57;98237.30;213780;1322;22631;-71
2021/12/07 03:58:43;;;;;;;37.60;18.10;;;;;;;-0.92;84.60;98236.58;213777;1323;22606;-71
2021/12/07 04:03:46;;;;;;;36.00;16.30;;;;;;;-0.92;84.61;98240.30;213712;1323;22604;-71
2021/12/07 04:08:50;;;;;;;40.80;17.50;;;;;;;-0.93;84.85;98247.11;213692;1323;22637;-71
2021/12/07 04:13:53;;;;;;;41.30;18.40;;;;;;;-0.94;84.63;98250.24;213796;1323;22760;-71
2021/12/07 04:19:09;;;;;;;37.10;17.70;;;;;;;-0.93;84.80;98252.42;213823;1322;22686;-71
2021/12/07 04:24:20;;;;;;;37.40;17.70;;;;;;;-0.92;84.80;98251.72;213676;1323;22783;-70
2021/12/07 04:29:46;;;;;;;;;;;;;;;-0.93;84.77;98249.67;213615;1323;26487;-71
2021/12/07 04:35:12;;;;;;;35.70;17.50;;;;;;;-0.94;84.51;98249.40;212987;1320;22585;-71
2021/12/07 04:40:18;;;;;;;41.00;18.50;;;;;;;-0.91;85.08;98258.41;213489;1323;25404;-71
2021/12/07 05:01:51;;;;;;;40.10;20.00;;;;;;;-0.84;84.74;98250.48;212461;1324;24253;-70
2021/12/07 05:07:03;;;;;;;41.80;20.10;;;;;;;-0.82;84.85;98249.33;213468;1324;24712;-70
2021/12/07 05:12:30;;;;;;;37.50;17.20;;;;;;;-0.78;84.96;98241.10;213521;1323;24357;-71
2021/12/07 05:18:21;;;;;;;39.70;17.90;;;;;;;-0.78;84.59;98240.33;213534;1318;23197;-69
2021/12/07 05:40:14;;;;;;;41.20;19.50;;;;;;;-0.67;84.72;98233.89;213720;1315;22724;-70
2021/12/07 05:45:27;;;;;;;41.20;18.20;;;;;;;-0.70;84.57;98232.19;213505;1323;22677;-71
2021/12/07 05:50:35;;;;;;;42.40;20.40;;;;;;;-0.75;84.42;98226.87;213643;1322;22590;-71
2021/12/07 05:56:01;;;;;;;40.10;19.90;;;;;;;-0.69;84.70;98233.99;213665;1315;23252;-70
2021/12/07 06:01:04;;;;;;;36.80;17.90;;;;;;;-0.67;84.76;98241.16;212561;1320;22772;-71
2021/12/07 06:06:26;;;;;;;43.00;19.70;;;;;;;-0.67;84.69;98240.92;212766;1320;24342;-70
2021/12/07 06:11:29;;;;;;;39.00;18.70;;;;;;;-0.69;84.43;98243.41;212686;1319;24240;-71
2021/12/07 06:16:35;;;;;;;37.70;18.70;;;;;;;-0.69;84.59;98248.27;212948;1315;22646;-72
2021/12/07 06:21:38;;;;;;;39.40;19.30;;;;;;;-0.66;84.56;98244.86;212784;1322;22599;-70
2021/12/07 06:26:54;;;;;;;45.80;19.60;;;;;;;-0.65;84.68;98244.67;212850;1322;22789;-70
2021/12/07 06:32:13;;;;;;;46.30;19.20;;;;;;;-0.66;84.65;98250.02;212802;1316;22595;-71
2021/12/07 06:37:20;;;;;;;39.70;18.50;;;;;;;-0.67;84.38;98261.92;213376;1322;22697;-71
2021/12/07 06:42:38;;;;;;;42.80;19.20;;;;;;;-0.68;84.58;98270.76;212343;1317;25637;-71
2021/12/07 06:47:54;;;;;;;40.80;17.60;;;;;;;-0.64;84.55;98272.06;213937;1318;25537;-72
2021/12/07 06:53:06;;;;;;;38.30;18.10;;;;;;;-0.57;84.34;98272.07;214436;1316;23340;-70
2021/12/07 06:58:08;;;;;;;45.10;20.10;;;;;;;-0.53;84.44;98280.95;213987;1321;23521;-70
2021/12/07 07:03:11;;;;;;;45.00;21.10;;;;;;;-0.50;84.38;98284.27;213923;1315;22580;-70
2021/12/07 07:08:15;;;;;;;47.80;22.20;;;;;;;-0.49;84.39;98287.33;214238;1315;22609;-71
2021/12/07 07:13:34;;;;;;;41.10;19.40;;;;;;;-0.49;84.10;98288.39;214502;1314;22583;-70
2021/12/07 07:18:50;;;;;;;42.50;19.60;;;;;;;-0.47;83.95;98290.86;214087;1314;22614;-72
2021/12/07 07:23:53;;;;;;;40.20;18.80;;;;;;;-0.41;83.99;98294.41;213883;1315;23884;-71
2021/12/07 07:29:58;;;;;;;39.70;18.50;;;;;;;-0.39;83.82;98295.54;213982;1314;22588;-71
2021/12/07 07:35:01;;;;;;;46.00;19.30;;;;;;;-0.34;83.66;98293.67;213928;1315;25448;-71
2021/12/07 07:40:06;;;;;;;49.60;21.90;;;;;;;-0.31;83.64;98288.32;213998;1315;22660;-71
2021/12/07 07:45:12;;;;;;;49.00;21.60;;;;;;;-0.22;83.67;98288.79;214149;1315;22606;-70
2021/12/07 07:50:50;;;;;;;42.00;20.60;;;;;;;-0.13;83.45;98287.81;213876;1314;22727;-71
2021/12/07 07:55:51;;;;;;;55.70;22.00;;;;;;;-0.10;83.46;98294.73;212366;1314;23016;-70
2021/12/07 08:01:23;;;;;;;48.80;21.20;;;;;;;-0.06;83.28;98300.36;211890;1316;22723;-70
2021/12/07 08:06:27;;;;;;;45.00;19.80;;;;;;;0.02;83.23;98300.82;212327;1315;23830;-70
2021/12/07 08:11:39;;;;;;;43.40;20.20;;;;;;;0.06;83.18;98299.45;212027;1315;22652;-71
2021/12/07 08:16:45;;;;;;;49.30;20.70;;;;;;;0.07;83.23;98297.89;212869;1312;231012;-70
2021/12/07 08:21:50;;;;;;;41.50;21.00;;;;;;;0.10;82.97;98297.95;212184;1315;22716;-71
2021/12/07 08:26:53;;;;;;;48.70;21.70;;;;;;;0.12;82.92;98307.36;211903;1316;27901;-70
2021/12/07 08:31:55;;;;;;;45.00;20.90;;;;;;;0.18;82.74;98312.11;212040;1314;22564;-70
2021/12/07 08:37:03;;;;;;;52.20;23.00;;;;;;;0.25;83.16;98319.43;214128;1314;25277;-70
2021/12/07 08:42:05;;;;;;;48.30;23.20;;;;;;;0.32;82.85;98322.10;214151;1314;23215;-70
2021/12/07 08:47:08;;;;;;;44.80;22.90;;;;;;;0.39;82.88;98328.66;214175;1314;24350;-71
2021/12/07 08:52:19;;;;;;;52.90;23.90;;;;;;;0.44;82.91;98332.69;214176;1315;25316;-71
2021/12/07 09:02:46;;;;;;;45.30;22.70;;;;;;;0.56;82.59;98324.11;214319;1315;24469;-71
2021/12/07 09:07:59;;;;;;;44.10;21.00;;;;;;;0.57;82.48;98322.66;214236;1315;22804;-71
2021/12/07 09:13:09;;;;;;;41.40;21.70;;;;;;;0.54;82.19;98326.87;214111;1315;23301;-70
2021/12/07 09:18:24;;;;;;;44.80;22.10;;;;;;;0.56;82.14;98324.69;214699;1314;22634;-71
2021/12/07 09:24:18;;;;;;;39.20;19.70;;;;;;;0.61;81.88;98326.41;215150;1315;22780;-71
2021/12/07 09:29:24;;;;;;;40.40;20.60;;;;;;;0.64;81.73;98319.64;214133;1313;23318;-71
2021/12/07 09:34:29;;;;;;;44.60;22.00;;;;;;;0.67;81.77;98307.25;214105;1314;23002;-71
2021/12/07 09:39:45;;;;;;;48.60;22.60;;;;;;;0.73;81.46;98306.92;214484;1314;23314;-70
2021/12/07 09:44:53;;;;;;;37.50;19.50;;;;;;;0.82;81.65;98309.09;212328;1314;26546;-70
2021/12/07 09:49:55;;;;;;;40.10;20.90;;;;;;;0.84;81.57;98307.25;212652;1313;22799;-70
2021/12/07 09:55:18;;;;;;;46.90;24.20;;;;;;;0.88;81.47;98311.89;212533;1314;24180;-70
2021/12/07 10:00:41;;;;;;;43.00;23.70;;;;;;;0.85;81.26;98311.63;213987;1316;22624;-70
2021/12/07 10:05:48;;;;;;;40.60;22.70;;;;;;;0.82;80.92;98306.83;214294;1314;22737;-70
2021/12/07 10:10:57;;;;;;;46.90;23.90;;;;;;;0.75;81.04;98304.89;214088;1315;22736;-71
2021/12/07 10:16:18;;;;;;;54.10;25.90;;;;;;;0.70;81.20;98304.18;214623;1315;22609;-71
2021/12/07 10:21:26;;;;;;;45.20;21.60;;;;;;;0.80;81.23;98305.59;214278;1314;25261;-71
2021/12/07 10:26:50;;;;;;;40.40;21.60;;;;;;;0.89;81.11;98304.20;214183;1314;24016;-69
2021/12/07 10:32:12;;;;;;;53.50;27.30;;;;;;;0.85;80.71;98305.98;212272;1315;22983;-70
2021/12/07 10:37:18;;;;;;;53.80;26.90;;;;;;;0.91;80.99;98300.34;212643;1315;24254;-70
2021/12/07 10:42:27;;;;;;;52.50;26.00;;;;;;;0.97;80.82;98305.72;212441;1315;24562;-70
2021/12/07 10:47:35;;;;;;;44.60;22.50;;;;;;;0.99;80.97;98296.10;214317;1314;24247;-70
2021/12/07 10:52:45;;;;;;;45.80;24.90;;;;;;;0.99;81.05;98289.77;213940;1317;22571;-70
2021/12/07 10:57:56;;;;;;;43.70;22.80;;;;;;;1.05;80.81;98289.36;214398;1316;24220;-70
2021/12/07 11:03:22;;;;;;;36.20;21.60;;;;;;;1.06;80.46;98289.38;214265;1315;22600;-69
2021/12/07 11:08:29;;;;;;;46.90;24.10;;;;;;;1.04;80.48;98296.88;213999;1321;24233;-70
2021/12/07 11:13:40;;;;;;;46.80;23.60;;;;;;;1.00;80.55;98293.23;214483;1314;22604;-69
2021/12/07 11:19:20;;;;;;;49.20;23.60;;;;;;;0.99;80.45;98300.89;214304;1315;25332;-70
2021/12/07 11:24:44;;;;;;;45.20;22.90;;;;;;;0.99;80.63;98305.23;214128;1314;22646;-70
2021/12/07 11:30:21;;;;;;;41.70;23.70;;;;;;;1.02;80.72;98304.23;213764;1316;22742;-70
2021/12/07 11:35:33;;;;;;;50.30;26.40;;;;;;;1.01;80.80;98302.52;214223;1315;22733;-70
2021/12/07 11:40:42;;;;;;;49.10;24.30;;;;;;;0.92;80.22;98306.52;214287;1322;22582;-68
2021/12/07 11:45:45;;;;;;;35.70;19.10;;;;;;;0.90;80.54;98308.28;214176;1315;22610;-70
2021/12/07 11:50:51;;;;;;;38.90;20.10;;;;;;;0.90;80.52;98313.88;214390;1315;25516;-69
2021/12/07 11:55:56;;;;;;;48.70;22.50;;;;;;;0.87;80.70;98316.90;212527;1315;22681;-70
2021/12/07 12:00:59;;;;;;;45.10;23.20;;;;;;;0.81;80.29;98315.10;212808;1315;22611;-69
2021/12/07 12:06:16;;;;;;;45.80;23.20;;;;;;;0.80;80.42;98311.27;212589;1314;22597;-70
2021/12/07 12:11:57;;;;;;;35.70;20.50;;;;;;;0.81;80.57;98312.78;212624;1316;22600;-68
2021/12/07 12:17:14;;;;;;;45.10;22.40;;;;;;;0.78;80.47;98313.97;212207;1316;24373;-69
2021/12/07 12:22:27;;;;;;;45.30;23.00;;;;;;;0.74;80.58;98318.64;212772;1319;22615;-68
2021/12/07 12:27:44;;;;;;;35.50;18.10;;;;;;;0.76;80.93;98322.80;212455;1323;24475;-70
2021/12/07 12:33:04;;;;;;;35.00;18.00;;;;;;;0.78;80.68;98322.52;212741;1315;25468;-68
2021/12/07 12:38:27;;;;;;;40.40;19.50;;;;;;;0.80;80.59;98322.13;212632;1320;22577;-68
2021/12/07 12:43:56;;;;;;;52.40;24.70;;;;;;;0.72;80.59;98319.66;212633;1315;27387;-68
2021/12/07 12:49:07;;;;;;;49.10;24.50;;;;;;;0.72;80.57;98330.11;212541;1315;25355;-69
2021/12/07 12:54:13;;;;;;;52.50;25.10;;;;;;;0.73;80.69;98333.52;212693;1321;25401;-68
2021/12/07 12:59:21;;;;;;;46.80;24.70;;;;;;;0.73;80.85;98337.67;212526;1315;25956;-69
2021/12/07 13:04:28;;;;;;;42.40;20.90;;;;;;;0.72;80.65;98339.85;212890;1320;25357;-69
2021/12/07 13:09:34;;;;;;;47.60;23.40;;;;;;;0.66;80.53;98343.29;212594;1315;25543;-69
2021/12/07 13:14:51;;;;;;;42.00;22.00;;;;;;;0.63;80.78;98342.95;212608;1316;26943;-69
2021/12/07 13:19:59;;;;;;;46.60;22.90;;;;;;;0.56;80.60;98354.00;212458;1321;22677;-69
2021/12/07 13:25:11;;;;;;;48.40;22.90;;;;;;;0.53;80.67;98358.16;212594;1315;22635;-69
2021/12/07 13:30:27;;;;;;;47.80;24.60;;;;;;;0.50;80.97;98360.75;212530;1316;25574;-68
2021/12/07 13:35:31;;;;;;;51.80;25.30;;;;;;;0.56;81.13;98363.85;212571;1315;22658;-69
2021/12/07 13:40:40;;;;;;;48.00;22.50;;;;;;;0.57;80.99;98373.05;212790;1321;22695;-69
2021/12/07 13:45:43;;;;;;;46.00;22.30;;;;;;;0.53;80.53;98377.29;212212;1316;22693;-69
2021/12/07 13:50:56;;;;;;;52.40;22.20;;;;;;;0.47;80.89;98385.09;212537;1315;22569;-69
2021/12/07 13:56:03;;;;;;;52.80;23.70;;;;;;;0.48;81.00;98385.77;212857;1318;22726;-68
2021/12/07 14:01:16;;;;;;;49.00;23.10;;;;;;;0.48;80.94;98386.15;212766;1319;23113;-69
2021/12/07 14:06:19;;;;;;;47.00;22.00;;;;;;;0.46;80.84;98386.65;212885;1316;22561;-70
2021/12/07 14:11:21;;;;;;;38.70;20.40;;;;;;;0.42;80.82;98384.14;212892;1314;22681;-69
2021/12/07 14:16:28;;;;;;;42.90;20.00;;;;;;;0.38;81.02;98380.15;212755;1315;22639;-70
2021/12/07 14:21:31;;;;;;;48.20;22.30;;;;;;;0.35;80.98;98379.61;212758;1322;22828;-69
2021/12/07 14:26:38;;;;;;;45.10;22.10;;;;;;;0.33;81.00;98385.04;212471;1321;22788;-69
2021/12/07 14:31:53;;;;;;;41.70;20.40;;;;;;;0.36;81.18;98390.86;212895;1322;22964;-70
2021/12/07 14:37:03;;;;;;;47.10;24.10;;;;;;;0.34;81.06;98396.82;212922;1319;23106;-70
2021/12/07 14:42:10;;;;;;;51.80;23.40;;;;;;;0.32;81.05;98397.14;212647;1323;22628;-70
2021/12/07 14:47:29;;;;;;;57.00;27.50;;;;;;;0.30;81.13;98394.14;213709;1319;23459;-69
2021/12/07 14:52:35;;;;;;;45.30;24.80;;;;;;;0.33;81.20;98407.98;212642;1323;22587;-69
2021/12/07 14:57:47;;;;;;;54.30;26.20;;;;;;;0.31;81.02;98410.61;212772;1321;22585;-70
2021/12/07 15:02:50;;;;;;;57.70;27.40;;;;;;;0.31;81.13;98404.65;212852;1315;22567;-69
2021/12/07 15:07:53;;;;;;;50.70;24.40;;;;;;;0.28;80.98;98398.06;212743;1315;22713;-69
2021/12/07 15:12:56;;;;;;;47.90;24.90;;;;;;;0.26;80.93;98399.77;212624;1318;22726;-71
2021/12/07 15:17:58;;;;;;;45.10;23.30;;;;;;;0.23;80.97;98405.81;212799;1314;22582;-70
2021/12/07 15:23:18;;;;;;;53.50;25.60;;;;;;;0.20;80.76;98402.77;212851;1315;23849;-69
2021/12/07 15:28:25;;;;;;;48.10;23.80;;;;;;;0.19;81.31;98403.92;212446;1315;22606;-71
2021/12/07 15:33:36;;;;;;;55.40;25.20;;;;;;;0.15;81.21;98408.58;212749;1314;24866;-69
2021/12/07 15:39:21;;;;;;;53.40;24.90;;;;;;;0.13;81.14;98410.59;213100;1314;23230;-69
2021/12/07 15:44:34;;;;;;;54.70;26.00;;;;;;;0.16;81.18;98410.56;212805;1314;24491;-70
2021/12/07 15:49:44;;;;;;;46.50;24.80;;;;;;;0.20;81.44;98407.33;213599;1323;22587;-70
2021/12/07 15:54:59;;;;;;;47.10;24.30;;;;;;;0.23;81.42;98410.39;213778;1322;25450;-70
2021/12/07 16:00:17;;;;;;;48.30;25.20;;;;;;;0.24;81.42;98414.74;213904;1316;24361;-72
2021/12/07 16:05:53;;;;;;;51.20;26.00;;;;;;;0.20;81.32;98414.05;213801;1322;25519;-71
2021/12/07 16:11:03;;;;;;;48.60;25.40;;;;;;;0.18;81.21;98412.75;213894;1322;25356;-72
2021/12/07 16:16:14;;;;;;;41.90;23.10;;;;;;;0.16;80.96;98405.09;211866;1323;2672572;-72
2021/12/07 16:21:22;;;;;;;40.20;20.80;;;;;;;0.11;81.02;98411.43;213796;1323;26645;-72
2021/12/07 16:26:27;;;;;;;41.10;20.50;;;;;;;0.07;80.96;98411.24;213970;1321;25329;-71
2021/12/07 16:31:39;;;;;;;39.20;20.20;;;;;;;0.02;80.87;98415.20;213728;1321;25364;-72
2021/12/07 16:37:00;;;;;;;43.80;22.70;;;;;;;-0.02;80.77;98422.52;213351;1324;22589;-71
2021/12/07 16:42:22;;;;;;;44.00;23.40;;;;;;;-0.08;81.12;98417.69;213827;1317;22635;-72
2021/12/07 16:47:25;;;;;;;47.30;23.80;;;;;;;-0.10;81.11;98416.73;213835;1322;25353;-72
2021/12/07 16:52:27;;;;;;;46.00;22.10;;;;;;;-0.14;81.33;98419.30;213856;1323;25455;-71
2021/12/07 16:57:30;;;;;;;46.80;23.80;;;;;;;-0.15;81.22;98416.58;214022;1322;25574;-71
2021/12/07 17:02:35;;;;;;;48.70;23.80;;;;;;;-0.17;81.23;98406.84;213556;1324;25444;-71
2021/12/07 17:07:42;;;;;;;41.90;22.20;;;;;;;-0.16;81.38;98406.02;213803;1323;24096;-71
2021/12/07 17:12:49;;;;;;;39.60;20.60;;;;;;;-0.17;81.32;98401.33;213765;1323;22667;-71
2021/12/07 17:17:52;;;;;;;43.40;20.90;;;;;;;-0.19;81.43;98397.59;213827;1322;25362;-72
2021/12/07 17:23:00;;;;;;;46.60;22.00;;;;;;;-0.17;81.40;98398.00;213668;1322;25442;-70
2021/12/07 17:28:06;;;;;;;43.70;22.00;;;;;;;-0.12;81.55;98403.44;214006;1320;25265;-72
2021/12/07 17:34:17;;;;;;;;;;;;;;;;;;;;;
2021/12/07 17:40:25;;;;;;;49.00;23.20;;;;;;;-0.17;81.43;98395.21;213774;1323;22600;-71
2021/12/07 17:45:32;;;;;;;43.40;21.50;;;;;;;-0.20;81.42;98391.73;213809;1323;23266;-72
2021/12/07 17:50:47;;;;;;;46.30;23.90;;;;;;;-0.24;81.18;98391.15;212838;1323;25342;-70
2021/12/07 17:55:52;;;;;;;55.70;25.90;;;;;;;-0.27;81.66;98395.29;212807;1322;22588;-72
2021/12/07 18:00:58;;;;;;;51.30;25.40;;;;;;;-0.27;81.79;98391.20;213838;1323;22643;-71
2021/12/07 18:06:12;;;;;;;46.90;23.80;;;;;;;-0.29;81.63;98393.42;213012;1323;26460;-71
2021/12/07 18:11:16;;;;;;;49.10;26.00;;;;;;;-0.29;81.52;98396.10;213856;1323;26426;-71
2021/12/07 18:16:18;;;;;;;50.40;26.70;;;;;;;-0.30;81.57;98392.42;213935;1321;25251;-71
2021/12/07 18:21:21;;;;;;;62.10;28.10;;;;;;;-0.33;81.82;98399.46;213779;1321;24320;-72
2021/12/07 18:26:43;;;;;;;49.40;24.70;;;;;;;-0.33;81.83;98407.89;213959;1322;25277;-71
2021/12/07 18:31:46;;;;;;;49.80;25.00;;;;;;;-0.36;81.56;98414.17;213546;1323;25603;-69
2021/12/07 18:36:50;;;;;;;50.80;24.30;;;;;;;-0.41;81.78;98421.80;213503;1324;26799;-72
2021/12/07 18:41:53;;;;;;;55.90;26.00;;;;;;;-0.42;82.07;98418.23;213748;1323;22669;-71
2021/12/07 18:47:27;;;;;;;52.80;25.70;;;;;;;-0.38;82.28;98419.83;213855;1319;22594;-72
2021/12/07 18:53:05;;;;;;;52.40;24.40;;;;;;;-0.32;82.39;98422.02;213758;1322;22775;-72
2021/12/07 18:58:09;;;;;;;48.00;23.80;;;;;;;-0.31;82.26;98422.61;213715;1316;22652;-72
2021/12/07 19:03:23;;;;;;;55.00;25.20;;;;;;;-0.31;82.30;98420.26;213806;1322;22781;-72
2021/12/07 19:08:26;;;;;;;51.70;24.90;;;;;;;-0.29;82.37;98421.52;213738;1323;22631;-71
2021/12/07 19:13:31;;;;;;;46.40;23.40;;;;;;;-0.25;82.32;98418.14;213790;1322;22844;-71
2021/12/07 19:18:41;;;;;;;52.70;24.50;;;;;;;-0.20;82.46;98414.63;213763;1323;22586;-70
2021/12/07 19:23:54;;;;;;;54.70;25.60;;;;;;;-0.19;82.11;98411.02;213810;1323;23978;-71
2021/12/07 19:29:01;;;;;;;50.60;25.00;;;;;;;-0.16;82.23;98411.76;213975;1322;22610;-72
2021/12/07 19:34:13;;;;;;;48.00;23.40;;;;;;;-0.12;82.20;98411.94;213858;1317;22729;-71
2021/12/07 19:39:18;;;;;;;51.00;24.80;;;;;;;-0.10;82.45;98409.27;213605;1319;25540;-70
2021/12/07 19:44:35;;;;;;;;;;;;;;;;;;;;;
2021/12/07 19:49:41;;;;;;;58.80;26.60;;;;;;;-0.13;82.28;98420.95;213965;1322;22587;-70
2021/12/07 19:54:47;;;;;;;64.40;30.10;;;;;;;-0.11;82.12;98422.74;213648;1323;24257;-71
2021/12/07 19:59:51;;;;;;;57.30;27.10;;;;;;;-0.10;81.93;98430.91;213820;1320;22604;-70
2021/12/07 20:05:03;;;;;;;64.20;29.30;;;;;;;-0.10;82.00;98430.88;213729;1323;22633;-71
2021/12/07 20:10:20;;;;;;;66.00;30.10;;;;;;;-0.13;82.23;98435.38;213828;1320;22680;-70
2021/12/07 20:16:01;;;;;;;59.60;29.40;;;;;;;-0.13;81.96;98431.32;213808;1323;22587;-71
2021/12/07 20:21:10;;;;;;;53.50;25.80;;;;;;;-0.08;82.21;98432.66;213469;1322;22607;-71
2021/12/07 20:26:32;;;;;;;46.90;24.00;;;;;;;-0.02;82.46;98418.95;213894;1322;23221;-71
2021/12/07 20:32:06;;;;;;;54.90;26.10;;;;;;;-0.03;81.96;98417.43;213762;1323;25392;-71
2021/12/07 20:37:08;;;;;;;58.20;26.10;;;;;;;-0.04;81.93;98416.64;213480;1323;23464;-72
2021/12/07 20:42:14;;;;;;;49.80;24.90;;;;;;;-0.02;82.01;98408.78;213759;1321;22599;-71
2021/12/07 20:47:19;;;;;;;54.80;25.70;;;;;;;-0.08;81.64;98398.06;213797;1323;25296;-71
2021/12/07 20:52:25;;;;;;;67.70;29.30;;;;;;;-0.13;81.77;98392.15;213919;1322;22640;-72
2021/12/07 20:58:07;;;;;;;61.40;28.90;;;;;;;-0.14;81.95;98388.41;213867;1323;22557;-71
2021/12/07 21:03:23;;;;;;;56.70;27.60;;;;;;;-0.11;81.91;98396.98;213898;1323;26471;-71
2021/12/07 21:08:41;;;;;;;59.70;27.90;;;;;;;-0.12;82.11;98388.95;213668;1322;22627;-72
2021/12/07 21:13:44;;;;;;;61.00;26.40;;;;;;;-0.14;82.03;98387.06;213999;1320;22673;-70
2021/12/07 21:18:51;;;;;;;64.50;28.70;;;;;;;-0.16;82.00;98384.74;213813;1322;23145;-71
2021/12/07 21:23:54;;;;;;;62.30;28.20;;;;;;;-0.14;81.79;98370.66;213555;1323;25512;-73
2021/12/07 21:29:03;;;;;;;57.40;25.90;;;;;;;-0.16;81.90;98370.52;213715;1322;25413;-71
2021/12/07 21:34:06;;;;;;;54.10;24.60;;;;;;;-0.21;81.93;98365.10;213676;1323;25446;-71
2021/12/07 21:39:18;;;;;;;53.40;23.90;;;;;;;-0.22;81.96;98362.40;213789;1321;24256;-70
2021/12/07 21:44:22;;;;;;;49.40;23.40;;;;;;;-0.23;81.80;98360.59;213867;1322;22764;-71
2021/12/07 21:49:25;;;;;;;52.80;23.60;;;;;;;-0.25;81.83;98353.01;213897;1322;25630;-71
2021/12/07 21:54:32;;;;;;;66.20;26.70;;;;;;;-0.30;81.98;98345.90;213746;1321;25444;-71
2021/12/07 22:00:00;;;;;;;62.40;26.80;;;;;;;-0.28;82.03;98343.66;213603;1323;25362;-71
2021/12/07 22:05:32;;;;;;;55.40;24.60;;;;;;;-0.26;82.33;98341.13;212945;1316;23333;-72
2021/12/07 22:10:38;;;;;;;53.20;21.70;;;;;;;-0.28;82.21;98338.05;213814;1321;22665;-71
2021/12/07 22:15:41;;;;;;;55.80;22.60;;;;;;;-0.27;82.19;98337.42;213841;1319;22610;-72
2021/12/07 22:20:44;;;;;;;52.10;23.50;;;;;;;-0.26;82.17;98340.13;213633;1323;22602;-71
2021/12/07 22:25:49;;;;;;;49.60;21.80;;;;;;;-0.23;82.17;98332.09;213916;1322;22591;-71
2021/12/07 22:31:24;;;;;;;52.70;21.40;;;;;;;-0.23;82.41;98333.27;213807;1320;22604;-71
2021/12/07 22:36:33;;;;;;;51.60;21.20;;;;;;;-0.27;82.07;98333.65;213490;1323;23023;-72
2021/12/07 22:41:38;;;;;;;49.80;21.40;;;;;;;-0.28;82.10;98326.41;213640;1321;24231;-74
2021/12/07 22:46:48;;;;;;;51.10;21.00;;;;;;;-0.28;82.22;98321.35;213734;1321;25436;-71
2021/12/07 22:51:53;;;;;;;48.80;21.80;;;;;;;-0.31;82.29;98318.65;213828;1317;24338;-72
2021/12/07 22:56:58;;;;;;;47.80;20.30;;;;;;;-0.39;82.22;98316.30;213822;1320;22597;-71
2021/12/07 23:02:00;;;;;;;43.80;19.80;;;;;;;-0.41;82.37;98312.99;213901;1319;22623;-72
2021/12/07 23:07:03;;;;;;;53.50;19.80;;;;;;;-0.43;82.47;98311.48;214010;1320;22577;-71
2021/12/07 23:12:10;;;;;;;51.30;21.20;;;;;;;-0.46;82.31;98307.61;213920;1319;24433;-72
2021/12/07 23:17:29;;;;;;;51.80;21.40;;;;;;;-0.45;82.61;98302.90;212764;1322;22676;-71
2021/12/07 23:22:41;;;;;;;49.50;20.60;;;;;;;-0.42;82.91;98296.50;213857;1322;22633;-71
2021/12/07 23:27:50;;;;;;;47.00;20.10;;;;;;;-0.40;82.66;98300.76;213715;1320;22774;-72
2021/12/07 23:32:55;;;;;;;50.20;22.10;;;;;;;-0.37;82.87;98289.20;213634;1323;22570;-72
2021/12/07 23:38:01;;;;;;;38.60;17.40;;;;;;;-0.35;82.59;98280.62;212705;1324;22567;-72
2021/12/07 23:43:06;;;;;;;39.70;16.10;;;;;;;-0.40;82.53;98270.45;213728;1323;24388;-71
2021/12/07 23:48:21;;;;;;;37.40;15.90;;;;;;;-0.49;82.30;98277.09;213762;1315;22609;-71
2021/12/07 23:53:24;;;;;;;43.80;17.50;;;;;;;-0.59;81.99;98273.16;213766;1321;25850;-71
2021/12/07 23:58:42;;;;;;;42.40;18.10;;;;;;;-0.70;82.18;98275.17;213789;1322;25651;-71
